sensor_id;sensor_type;location;lat;lon;timestamp;P1;durP1;ratioP1;P2;durP2;ratioP2
15354;SDS011;7777;52.254;9.618;2023-04-22T00:00:14;10.87;;;8.93;;
15354;SDS011;7777;52.254;9.618;2023-04-22T00:02:41;11.60;;;8.53;;
15354;SDS011;7777;52.254;9.618;2023-04-22T00:05:07;10.23;;;8.10;;
15354;SDS011;7777;52.254;9.618;2023-04-22T00:07:37;9.80;;;8.07;;
15354;SDS011;7777;52.254;9.618;2023-04-22T00:10:07;16.03;;;9.53;;
15354;SDS011;7777;52.254;9.618;2023-04-22T00:12:34;11.67;;;8.40;;
15354;SDS011;7777;52.254;9.618;2023-04-22T00:15:00;12.73;;;8.17;;
15354;SDS011;7777;52.254;9.618;2023-04-22T00:17:26;12.97;;;8.43;;
15354;SDS011;7777;52.254;9.618;2023-04-22T00:19:51;9.93;;;7.53;;
15354;SDS011;7777;52.254;9.618;2023-04-22T00:22:18;12.87;;;8.63;;
15354;SDS011;7777;52.254;9.618;2023-04-22T00:24:44;12.23;;;7.93;;
15354;SDS011;7777;52.254;9.618;2023-04-22T00:27:10;10.67;;;7.87;;
15354;SDS011;7777;52.254;9.618;2023-04-22T00:29:36;11.57;;;7.90;;
15354;SDS011;7777;52.254;9.618;2023-04-22T00:32:02;11.83;;;8.53;;
15354;SDS011;7777;52.254;9.618;2023-04-22T00:34:28;13.00;;;8.10;;
15354;SDS011;7777;52.254;9.618;2023-04-22T00:36:53;13.23;;;8.40;;
15354;SDS011;7777;52.254;9.618;2023-04-22T00:39:19;9.23;;;7.73;;
15354;SDS011;7777;52.254;9.618;2023-04-22T00:41:45;11.60;;;8.57;;
15354;SDS011;7777;52.254;9.618;2023-04-22T00:44:11;13.90;;;7.90;;
15354;SDS011;7777;52.254;9.618;2023-04-22T00:46:37;9.07;;;7.87;;
15354;SDS011;7777;52.254;9.618;2023-04-22T00:49:04;10.90;;;8.50;;
15354;SDS011;7777;52.254;9.618;2023-04-22T00:51:31;17.20;;;8.90;;
15354;SDS011;7777;52.254;9.618;2023-04-22T00:53:57;12.50;;;8.03;;
15354;SDS011;7777;52.254;9.618;2023-04-22T00:56:26;11.50;;;6.73;;
15354;SDS011;7777;52.254;9.618;2023-04-22T00:58:53;9.50;;;7.43;;
15354;SDS011;7777;52.254;9.618;2023-04-22T01:01:19;10.67;;;7.77;;
15354;SDS011;7777;52.254;9.618;2023-04-22T01:03:46;13.87;;;8.00;;
15354;SDS011;7777;52.254;9.618;2023-04-22T01:06:13;16.30;;;8.77;;
15354;SDS011;7777;52.254;9.618;2023-04-22T01:08:41;13.70;;;8.43;;
15354;SDS011;7777;52.254;9.618;2023-04-22T01:11:07;11.40;;;7.97;;
15354;SDS011;7777;52.254;9.618;2023-04-22T01:13:32;11.57;;;7.80;;
15354;SDS011;7777;52.254;9.618;2023-04-22T01:16:00;12.73;;;8.17;;
15354;SDS011;7777;52.254;9.618;2023-04-22T01:18:26;12.93;;;7.90;;
15354;SDS011;7777;52.254;9.618;2023-04-22T01:20:52;9.40;;;7.57;;
15354;SDS011;7777;52.254;9.618;2023-04-22T01:23:21;13.07;;;8.80;;
15354;SDS011;7777;52.254;9.618;2023-04-22T01:25:47;12.57;;;8.63;;
15354;SDS011;7777;52.254;9.618;2023-04-22T01:28:13;13.17;;;8.80;;
15354;SDS011;7777;52.254;9.618;2023-04-22T01:30:41;12.00;;;8.33;;
15354;SDS011;7777;52.254;9.618;2023-04-22T01:33:08;12.80;;;8.53;;
15354;SDS011;7777;52.254;9.618;2023-04-22T01:35:35;12.23;;;8.27;;
15354;SDS011;7777;52.254;9.618;2023-04-22T01:38:05;10.73;;;7.93;;
15354;SDS011;7777;52.254;9.618;2023-04-22T01:40:32;10.80;;;8.20;;
15354;SDS011;7777;52.254;9.618;2023-04-22T01:42:59;9.63;;;8.27;;
15354;SDS011;7777;52.254;9.618;2023-04-22T01:45:26;10.70;;;8.37;;
15354;SDS011;7777;52.254;9.618;2023-04-22T01:47:52;10.50;;;7.73;;
15354;SDS011;7777;52.254;9.618;2023-04-22T01:50:19;9.00;;;7.50;;
15354;SDS011;7777;52.254;9.618;2023-04-22T01:52:46;9.13;;;7.30;;
15354;SDS011;7777;52.254;9.618;2023-04-22T01:55:12;10.03;;;7.87;;
15354;SDS011;7777;52.254;9.618;2023-04-22T01:57:38;9.17;;;7.33;;
15354;SDS011;7777;52.254;9.618;2023-04-22T02:00:05;10.00;;;7.80;;
15354;SDS011;7777;52.254;9.618;2023-04-22T02:02:32;10.87;;;7.57;;
15354;SDS011;7777;52.254;9.618;2023-04-22T02:04:58;11.90;;;8.20;;
15354;SDS011;7777;52.254;9.618;2023-04-22T02:07:24;13.33;;;8.17;;
15354;SDS011;7777;52.254;9.618;2023-04-22T02:09:49;10.17;;;8.17;;
15354;SDS011;7777;52.254;9.618;2023-04-22T02:12:17;11.40;;;8.17;;
15354;SDS011;7777;52.254;9.618;2023-04-22T02:14:43;10.20;;;8.00;;
15354;SDS011;7777;52.254;9.618;2023-04-22T02:17:08;11.83;;;8.00;;
15354;SDS011;7777;52.254;9.618;2023-04-22T02:19:35;16.37;;;9.17;;
15354;SDS011;7777;52.254;9.618;2023-04-22T02:22:01;13.03;;;9.00;;
15354;SDS011;7777;52.254;9.618;2023-04-22T02:24:27;11.43;;;8.90;;
15354;SDS011;7777;52.254;9.618;2023-04-22T02:26:53;12.13;;;8.90;;
15354;SDS011;7777;52.254;9.618;2023-04-22T02:29:19;12.73;;;9.60;;
15354;SDS011;7777;52.254;9.618;2023-04-22T02:31:44;16.73;;;8.87;;
15354;SDS011;7777;52.254;9.618;2023-04-22T02:34:10;15.83;;;9.47;;
15354;SDS011;7777;52.254;9.618;2023-04-22T02:36:36;12.17;;;8.67;;
15354;SDS011;7777;52.254;9.618;2023-04-22T02:39:01;11.17;;;9.27;;
15354;SDS011;7777;52.254;9.618;2023-04-22T02:41:28;16.43;;;9.73;;
15354;SDS011;7777;52.254;9.618;2023-04-22T02:43:54;15.93;;;9.63;;
15354;SDS011;7777;52.254;9.618;2023-04-22T02:46:20;14.33;;;10.10;;
15354;SDS011;7777;52.254;9.618;2023-04-22T02:48:46;13.87;;;9.80;;
15354;SDS011;7777;52.254;9.618;2023-04-22T02:51:12;11.67;;;9.47;;
15354;SDS011;7777;52.254;9.618;2023-04-22T02:53:38;10.90;;;8.73;;
15354;SDS011;7777;52.254;9.618;2023-04-22T02:56:04;12.63;;;9.00;;
15354;SDS011;7777;52.254;9.618;2023-04-22T02:58:30;12.47;;;9.53;;
15354;SDS011;7777;52.254;9.618;2023-04-22T03:00:58;16.23;;;9.90;;
15354;SDS011;7777;52.254;9.618;2023-04-22T03:03:25;16.80;;;9.23;;
15354;SDS011;7777;52.254;9.618;2023-04-22T03:05:51;13.80;;;9.17;;
15354;SDS011;7777;52.254;9.618;2023-04-22T03:08:17;18.07;;;9.13;;
15354;SDS011;7777;52.254;9.618;2023-04-22T03:10:44;12.20;;;9.20;;
15354;SDS011;7777;52.254;9.618;2023-04-22T03:13:11;12.40;;;9.10;;
15354;SDS011;7777;52.254;9.618;2023-04-22T03:15:41;11.50;;;9.43;;
15354;SDS011;7777;52.254;9.618;2023-04-22T03:18:07;12.47;;;8.43;;
15354;SDS011;7777;52.254;9.618;2023-04-22T03:20:33;16.47;;;9.33;;
15354;SDS011;7777;52.254;9.618;2023-04-22T03:23:00;17.07;;;10.37;;
15354;SDS011;7777;52.254;9.618;2023-04-22T03:25:26;12.10;;;9.70;;
15354;SDS011;7777;52.254;9.618;2023-04-22T03:27:52;14.23;;;9.80;;
15354;SDS011;7777;52.254;9.618;2023-04-22T03:30:17;12.20;;;9.97;;
15354;SDS011;7777;52.254;9.618;2023-04-22T03:32:43;14.37;;;9.87;;
15354;SDS011;7777;52.254;9.618;2023-04-22T03:35:09;16.37;;;10.53;;
15354;SDS011;7777;52.254;9.618;2023-04-22T03:37:35;12.03;;;9.70;;
15354;SDS011;7777;52.254;9.618;2023-04-22T03:40:01;16.53;;;10.40;;
15354;SDS011;7777;52.254;9.618;2023-04-22T03:42:27;11.63;;;10.07;;
15354;SDS011;7777;52.254;9.618;2023-04-22T03:44:53;13.57;;;10.47;;
15354;SDS011;7777;52.254;9.618;2023-04-22T03:47:19;13.50;;;10.30;;
15354;SDS011;7777;52.254;9.618;2023-04-22T03:49:45;15.40;;;10.23;;
15354;SDS011;7777;52.254;9.618;2023-04-22T03:52:10;17.07;;;10.20;;
15354;SDS011;7777;52.254;9.618;2023-04-22T03:54:36;15.73;;;10.20;;
15354;SDS011;7777;52.254;9.618;2023-04-22T03:57:02;12.80;;;10.07;;
15354;SDS011;7777;52.254;9.618;2023-04-22T03:59:28;16.03;;;10.13;;
15354;SDS011;7777;52.254;9.618;2023-04-22T04:01:53;12.63;;;8.90;;
15354;SDS011;7777;52.254;9.618;2023-04-22T04:04:19;15.43;;;10.37;;
15354;SDS011;7777;52.254;9.618;2023-04-22T04:06:47;14.30;;;9.83;;
15354;SDS011;7777;52.254;9.618;2023-04-22T04:09:13;15.77;;;10.30;;
15354;SDS011;7777;52.254;9.618;2023-04-22T04:11:38;13.60;;;9.93;;
15354;SDS011;7777;52.254;9.618;2023-04-22T04:14:04;13.73;;;9.40;;
15354;SDS011;7777;52.254;9.618;2023-04-22T04:16:30;12.70;;;9.43;;
15354;SDS011;7777;52.254;9.618;2023-04-22T04:18:56;16.23;;;8.97;;
15354;SDS011;7777;52.254;9.618;2023-04-22T04:21:21;16.00;;;8.17;;
15354;SDS011;7777;52.254;9.618;2023-04-22T04:23:47;9.73;;;7.23;;
15354;SDS011;7777;52.254;9.618;2023-04-22T04:26:13;11.33;;;6.70;;
15354;SDS011;7777;52.254;9.618;2023-04-22T04:28:39;10.30;;;6.53;;
15354;SDS011;7777;52.254;9.618;2023-04-22T04:31:05;10.67;;;6.10;;
15354;SDS011;7777;52.254;9.618;2023-04-22T04:33:31;10.30;;;5.93;;
15354;SDS011;7777;52.254;9.618;2023-04-22T04:35:57;10.13;;;6.73;;
15354;SDS011;7777;52.254;9.618;2023-04-22T04:38:24;9.93;;;6.33;;
15354;SDS011;7777;52.254;9.618;2023-04-22T04:40:50;11.63;;;6.23;;
15354;SDS011;7777;52.254;9.618;2023-04-22T04:43:17;10.73;;;5.97;;
15354;SDS011;7777;52.254;9.618;2023-04-22T04:45:43;11.67;;;6.30;;
15354;SDS011;7777;52.254;9.618;2023-04-22T04:48:25;8.30;;;5.60;;
15354;SDS011;7777;52.254;9.618;2023-04-22T04:50:59;16.37;;;6.17;;
15354;SDS011;7777;52.254;9.618;2023-04-22T04:53:27;14.07;;;5.30;;
15354;SDS011;7777;52.254;9.618;2023-04-22T04:56:03;11.80;;;5.80;;
15354;SDS011;7777;52.254;9.618;2023-04-22T04:58:29;13.37;;;6.20;;
15354;SDS011;7777;52.254;9.618;2023-04-22T05:00:55;8.43;;;5.60;;
15354;SDS011;7777;52.254;9.618;2023-04-22T05:03:20;12.33;;;6.03;;
15354;SDS011;7777;52.254;9.618;2023-04-22T05:05:46;10.73;;;6.23;;
15354;SDS011;7777;52.254;9.618;2023-04-22T05:08:13;9.73;;;5.20;;
15354;SDS011;7777;52.254;9.618;2023-04-22T05:10:39;6.67;;;4.70;;
15354;SDS011;7777;52.254;9.618;2023-04-22T05:13:06;10.20;;;5.43;;
15354;SDS011;7777;52.254;9.618;2023-04-22T05:15:32;10.93;;;5.27;;
15354;SDS011;7777;52.254;9.618;2023-04-22T05:17:57;6.90;;;4.70;;
15354;SDS011;7777;52.254;9.618;2023-04-22T05:20:23;9.17;;;4.80;;
15354;SDS011;7777;52.254;9.618;2023-04-22T05:22:49;8.37;;;4.60;;
15354;SDS011;7777;52.254;9.618;2023-04-22T05:25:15;8.23;;;4.60;;
15354;SDS011;7777;52.254;9.618;2023-04-22T05:27:41;8.20;;;4.87;;
15354;SDS011;7777;52.254;9.618;2023-04-22T05:30:07;10.80;;;5.17;;
15354;SDS011;7777;52.254;9.618;2023-04-22T05:32:33;8.27;;;4.67;;
15354;SDS011;7777;52.254;9.618;2023-04-22T05:34:59;10.37;;;4.53;;
15354;SDS011;7777;52.254;9.618;2023-04-22T05:37:25;6.33;;;4.87;;
15354;SDS011;7777;52.254;9.618;2023-04-22T05:39:50;10.10;;;5.03;;
15354;SDS011;7777;52.254;9.618;2023-04-22T05:42:16;8.87;;;4.70;;
15354;SDS011;7777;52.254;9.618;2023-04-22T05:44:43;9.70;;;4.73;;
15354;SDS011;7777;52.254;9.618;2023-04-22T05:47:10;10.40;;;4.77;;
15354;SDS011;7777;52.254;9.618;2023-04-22T05:49:36;8.60;;;5.00;;
15354;SDS011;7777;52.254;9.618;2023-04-22T05:52:01;11.27;;;5.03;;
15354;SDS011;7777;52.254;9.618;2023-04-22T05:54:27;7.73;;;4.80;;
15354;SDS011;7777;52.254;9.618;2023-04-22T05:56:53;11.47;;;4.43;;
15354;SDS011;7777;52.254;9.618;2023-04-22T05:59:20;8.60;;;4.53;;
15354;SDS011;7777;52.254;9.618;2023-04-22T06:01:45;11.40;;;5.17;;
15354;SDS011;7777;52.254;9.618;2023-04-22T06:04:11;8.33;;;4.53;;
15354;SDS011;7777;52.254;9.618;2023-04-22T06:06:37;6.60;;;4.23;;
15354;SDS011;7777;52.254;9.618;2023-04-22T06:09:03;8.07;;;4.50;;
15354;SDS011;7777;52.254;9.618;2023-04-22T06:11:31;7.83;;;4.03;;
15354;SDS011;7777;52.254;9.618;2023-04-22T06:13:57;6.63;;;4.27;;
15354;SDS011;7777;52.254;9.618;2023-04-22T06:16:24;13.03;;;5.63;;
15354;SDS011;7777;52.254;9.618;2023-04-22T06:18:50;7.03;;;4.47;;
15354;SDS011;7777;52.254;9.618;2023-04-22T06:21:16;12.70;;;4.40;;
15354;SDS011;7777;52.254;9.618;2023-04-22T06:23:41;9.03;;;4.50;;
15354;SDS011;7777;52.254;9.618;2023-04-22T06:26:07;8.80;;;4.43;;
15354;SDS011;7777;52.254;9.618;2023-04-22T06:28:38;10.53;;;4.50;;
15354;SDS011;7777;52.254;9.618;2023-04-22T06:33:34;10.53;;;4.53;;
15354;SDS011;7777;52.254;9.618;2023-04-22T06:36:00;11.30;;;5.10;;
15354;SDS011;7777;52.254;9.618;2023-04-22T06:38:26;5.77;;;4.03;;
15354;SDS011;7777;52.254;9.618;2023-04-22T06:40:52;7.93;;;4.47;;
15354;SDS011;7777;52.254;9.618;2023-04-22T06:43:17;10.97;;;4.50;;
15354;SDS011;7777;52.254;9.618;2023-04-22T06:45:43;5.13;;;3.67;;
15354;SDS011;7777;52.254;9.618;2023-04-22T06:48:09;6.33;;;4.03;;
15354;SDS011;7777;52.254;9.618;2023-04-22T06:50:34;8.83;;;4.10;;
15354;SDS011;7777;52.254;9.618;2023-04-22T06:53:00;7.07;;;4.70;;
15354;SDS011;7777;52.254;9.618;2023-04-22T06:55:26;6.57;;;4.20;;
15354;SDS011;7777;52.254;9.618;2023-04-22T06:57:52;6.10;;;4.07;;
15354;SDS011;7777;52.254;9.618;2023-04-22T07:00:17;6.73;;;4.70;;
15354;SDS011;7777;52.254;9.618;2023-04-22T07:02:43;10.77;;;4.70;;
15354;SDS011;7777;52.254;9.618;2023-04-22T07:05:09;7.13;;;4.20;;
15354;SDS011;7777;52.254;9.618;2023-04-22T07:07:35;13.20;;;4.83;;
15354;SDS011;7777;52.254;9.618;2023-04-22T07:10:00;6.67;;;4.50;;
15354;SDS011;7777;52.254;9.618;2023-04-22T07:12:26;5.60;;;4.10;;
15354;SDS011;7777;52.254;9.618;2023-04-22T07:14:52;8.50;;;4.67;;
15354;SDS011;7777;52.254;9.618;2023-04-22T07:17:17;7.93;;;4.53;;
15354;SDS011;7777;52.254;9.618;2023-04-22T07:19:46;9.33;;;4.67;;
15354;SDS011;7777;52.254;9.618;2023-04-22T07:22:12;8.77;;;4.87;;
15354;SDS011;7777;52.254;9.618;2023-04-22T07:24:38;10.03;;;4.60;;
15354;SDS011;7777;52.254;9.618;2023-04-22T07:27:05;7.57;;;4.57;;
15354;SDS011;7777;52.254;9.618;2023-04-22T07:29:30;8.77;;;4.73;;
15354;SDS011;7777;52.254;9.618;2023-04-22T07:31:56;8.10;;;4.53;;
15354;SDS011;7777;52.254;9.618;2023-04-22T07:34:22;5.97;;;4.20;;
15354;SDS011;7777;52.254;9.618;2023-04-22T07:36:48;9.50;;;4.60;;
15354;SDS011;7777;52.254;9.618;2023-04-22T07:39:16;9.27;;;4.90;;
15354;SDS011;7777;52.254;9.618;2023-04-22T07:41:42;11.90;;;4.00;;
15354;SDS011;7777;52.254;9.618;2023-04-22T07:44:07;7.10;;;4.50;;
15354;SDS011;7777;52.254;9.618;2023-04-22T07:46:34;6.10;;;4.27;;
15354;SDS011;7777;52.254;9.618;2023-04-22T07:49:00;7.03;;;4.40;;
15354;SDS011;7777;52.254;9.618;2023-04-22T07:51:27;6.53;;;4.37;;
15354;SDS011;7777;52.254;9.618;2023-04-22T07:53:53;9.80;;;4.40;;
15354;SDS011;7777;52.254;9.618;2023-04-22T07:56:19;8.10;;;4.23;;
15354;SDS011;7777;52.254;9.618;2023-04-22T07:58:45;5.53;;;3.40;;
15354;SDS011;7777;52.254;9.618;2023-04-22T08:01:10;6.63;;;4.20;;
15354;SDS011;7777;52.254;9.618;2023-04-22T08:03:36;7.03;;;3.67;;
15354;SDS011;7777;52.254;9.618;2023-04-22T08:06:02;9.87;;;3.80;;
15354;SDS011;7777;52.254;9.618;2023-04-22T08:08:28;5.87;;;3.50;;
15354;SDS011;7777;52.254;9.618;2023-04-22T08:10:56;9.83;;;4.23;;
15354;SDS011;7777;52.254;9.618;2023-04-22T08:13:22;7.03;;;4.10;;
15354;SDS011;7777;52.254;9.618;2023-04-22T08:15:47;5.67;;;3.70;;
15354;SDS011;7777;52.254;9.618;2023-04-22T08:18:13;8.40;;;3.73;;
15354;SDS011;7777;52.254;9.618;2023-04-22T08:20:39;7.27;;;3.63;;
15354;SDS011;7777;52.254;9.618;2023-04-22T08:23:05;15.80;;;4.37;;
15354;SDS011;7777;52.254;9.618;2023-04-22T08:25:31;6.97;;;3.83;;
15354;SDS011;7777;52.254;9.618;2023-04-22T08:27:56;10.70;;;4.30;;
15354;SDS011;7777;52.254;9.618;2023-04-22T08:30:22;7.60;;;3.90;;
15354;SDS011;7777;52.254;9.618;2023-04-22T08:32:48;7.63;;;3.53;;
15354;SDS011;7777;52.254;9.618;2023-04-22T08:35:13;8.80;;;4.10;;
15354;SDS011;7777;52.254;9.618;2023-04-22T08:37:40;7.65;;;3.47;;
15354;SDS011;7777;52.254;9.618;2023-04-22T08:40:06;9.00;;;3.27;;
15354;SDS011;7777;52.254;9.618;2023-04-22T08:42:32;9.10;;;4.07;;
15354;SDS011;7777;52.254;9.618;2023-04-22T08:44:58;9.07;;;3.33;;
15354;SDS011;7777;52.254;9.618;2023-04-22T08:47:26;6.57;;;3.13;;
15354;SDS011;7777;52.254;9.618;2023-04-22T08:49:54;4.40;;;2.97;;
15354;SDS011;7777;52.254;9.618;2023-04-22T08:52:20;13.83;;;3.77;;
15354;SDS011;7777;52.254;9.618;2023-04-22T08:54:46;6.60;;;2.90;;
15354;SDS011;7777;52.254;9.618;2023-04-22T08:57:12;7.33;;;3.23;;
15354;SDS011;7777;52.254;9.618;2023-04-22T08:59:39;7.23;;;3.13;;
15354;SDS011;7777;52.254;9.618;2023-04-22T09:02:05;6.83;;;3.47;;
15354;SDS011;7777;52.254;9.618;2023-04-22T09:04:39;5.27;;;3.10;;
15354;SDS011;7777;52.254;9.618;2023-04-22T09:07:07;6.83;;;3.00;;
15354;SDS011;7777;52.254;9.618;2023-04-22T09:09:33;11.57;;;3.53;;
15354;SDS011;7777;52.254;9.618;2023-04-22T09:11:59;5.83;;;3.07;;
15354;SDS011;7777;52.254;9.618;2023-04-22T09:14:25;6.73;;;2.97;;
15354;SDS011;7777;52.254;9.618;2023-04-22T09:16:51;5.80;;;3.40;;
15354;SDS011;7777;52.254;9.618;2023-04-22T09:19:17;4.77;;;3.30;;
15354;SDS011;7777;52.254;9.618;2023-04-22T09:21:43;9.43;;;3.50;;
15354;SDS011;7777;52.254;9.618;2023-04-22T09:24:10;7.47;;;2.80;;
15354;SDS011;7777;52.254;9.618;2023-04-22T09:26:39;5.77;;;2.30;;
15354;SDS011;7777;52.254;9.618;2023-04-22T09:29:06;7.07;;;3.30;;
15354;SDS011;7777;52.254;9.618;2023-04-22T09:31:37;4.50;;;2.63;;
15354;SDS011;7777;52.254;9.618;2023-04-22T09:34:04;5.37;;;3.03;;
15354;SDS011;7777;52.254;9.618;2023-04-22T09:36:31;5.57;;;3.00;;
15354;SDS011;7777;52.254;9.618;2023-04-22T09:39:05;3.53;;;2.57;;
15354;SDS011;7777;52.254;9.618;2023-04-22T09:41:38;8.03;;;2.90;;
15354;SDS011;7777;52.254;9.618;2023-04-22T09:44:10;3.17;;;2.83;;
15354;SDS011;7777;52.254;9.618;2023-04-22T09:46:40;6.37;;;3.07;;
15354;SDS011;7777;52.254;9.618;2023-04-22T09:49:08;11.33;;;2.63;;
15354;SDS011;7777;52.254;9.618;2023-04-22T09:51:34;5.23;;;2.87;;
15354;SDS011;7777;52.254;9.618;2023-04-22T09:54:06;4.27;;;2.50;;
15354;SDS011;7777;52.254;9.618;2023-04-22T09:59:20;7.53;;;2.30;;
15354;SDS011;7777;52.254;9.618;2023-04-22T10:01:48;3.47;;;2.40;;
15354;SDS011;7777;52.254;9.618;2023-04-22T10:04:20;4.53;;;2.23;;
15354;SDS011;7777;52.254;9.618;2023-04-22T10:06:47;11.27;;;2.37;;
15354;SDS011;7777;52.254;9.618;2023-04-22T10:09:17;15.30;;;3.33;;
15354;SDS011;7777;52.254;9.618;2023-04-22T10:11:44;4.23;;;2.40;;
15354;SDS011;7777;52.254;9.618;2023-04-22T10:14:12;3.40;;;2.10;;
15354;SDS011;7777;52.254;9.618;2023-04-22T10:16:38;5.43;;;1.97;;
15354;SDS011;7777;52.254;9.618;2023-04-22T10:19:08;4.93;;;2.70;;
15354;SDS011;7777;52.254;9.618;2023-04-22T10:21:40;5.20;;;3.03;;
15354;SDS011;7777;52.254;9.618;2023-04-22T10:24:13;3.80;;;2.10;;
15354;SDS011;7777;52.254;9.618;2023-04-22T10:29:21;4.83;;;2.50;;
15354;SDS011;7777;52.254;9.618;2023-04-22T10:31:58;9.80;;;2.30;;
15354;SDS011;7777;52.254;9.618;2023-04-22T10:34:48;4.37;;;2.70;;
15354;SDS011;7777;52.254;9.618;2023-04-22T10:37:19;5.00;;;2.43;;
15354;SDS011;7777;52.254;9.618;2023-04-22T10:42:40;4.00;;;2.30;;
15354;SDS011;7777;52.254;9.618;2023-04-22T10:45:11;5.57;;;2.37;;
15354;SDS011;7777;52.254;9.618;2023-04-22T10:47:41;7.43;;;2.07;;
15354;SDS011;7777;52.254;9.618;2023-04-22T10:50:29;4.37;;;2.20;;
15354;SDS011;7777;52.254;9.618;2023-04-22T10:52:56;4.00;;;2.10;;
15354;SDS011;7777;52.254;9.618;2023-04-22T10:55:23;5.13;;;2.63;;
15354;SDS011;7777;52.254;9.618;2023-04-22T10:57:51;4.93;;;2.40;;
15354;SDS011;7777;52.254;9.618;2023-04-22T11:00:25;4.43;;;2.47;;
15354;SDS011;7777;52.254;9.618;2023-04-22T11:03:15;4.80;;;2.50;;
15354;SDS011;7777;52.254;9.618;2023-04-22T11:05:40;6.60;;;3.17;;
15354;SDS011;7777;52.254;9.618;2023-04-22T11:08:11;6.50;;;2.73;;
15354;SDS011;7777;52.254;9.618;2023-04-22T11:10:46;6.10;;;2.47;;
15354;SDS011;7777;52.254;9.618;2023-04-22T11:13:15;3.77;;;2.57;;
15354;SDS011;7777;52.254;9.618;2023-04-22T11:15:49;7.20;;;2.80;;
15354;SDS011;7777;52.254;9.618;2023-04-22T11:18:23;4.43;;;2.73;;
15354;SDS011;7777;52.254;9.618;2023-04-22T11:20:50;5.67;;;2.80;;
15354;SDS011;7777;52.254;9.618;2023-04-22T11:23:27;5.90;;;2.63;;
15354;SDS011;7777;52.254;9.618;2023-04-22T11:25:58;6.90;;;2.60;;
15354;SDS011;7777;52.254;9.618;2023-04-22T11:28:31;4.23;;;2.57;;
15354;SDS011;7777;52.254;9.618;2023-04-22T11:33:36;5.07;;;2.70;;
15354;SDS011;7777;52.254;9.618;2023-04-22T11:36:11;7.60;;;2.63;;
15354;SDS011;7777;52.254;9.618;2023-04-22T11:38:37;4.73;;;3.03;;
15354;SDS011;7777;52.254;9.618;2023-04-22T11:41:03;6.37;;;2.80;;
15354;SDS011;7777;52.254;9.618;2023-04-22T11:43:29;3.80;;;2.53;;
15354;SDS011;7777;52.254;9.618;2023-04-22T11:45:56;4.47;;;2.50;;
15354;SDS011;7777;52.254;9.618;2023-04-22T11:48:23;4.47;;;2.87;;
15354;SDS011;7777;52.254;9.618;2023-04-22T11:50:49;4.70;;;2.33;;
15354;SDS011;7777;52.254;9.618;2023-04-22T11:53:33;4.53;;;2.27;;
15354;SDS011;7777;52.254;9.618;2023-04-22T11:55:59;5.93;;;2.53;;
15354;SDS011;7777;52.254;9.618;2023-04-22T11:58:27;8.07;;;2.80;;
15354;SDS011;7777;52.254;9.618;2023-04-22T12:00:54;6.33;;;3.00;;
15354;SDS011;7777;52.254;9.618;2023-04-22T12:03:23;7.17;;;2.83;;
15354;SDS011;7777;52.254;9.618;2023-04-22T12:05:52;10.53;;;3.23;;
15354;SDS011;7777;52.254;9.618;2023-04-22T12:10:57;7.37;;;2.70;;
15354;SDS011;7777;52.254;9.618;2023-04-22T12:13:26;7.17;;;2.40;;
15354;SDS011;7777;52.254;9.618;2023-04-22T12:15:55;4.50;;;2.43;;
15354;SDS011;7777;52.254;9.618;2023-04-22T12:18:27;7.43;;;2.50;;
15354;SDS011;7777;52.254;9.618;2023-04-22T12:21:07;6.50;;;2.70;;
15354;SDS011;7777;52.254;9.618;2023-04-22T12:26:10;3.00;;;2.00;;
15354;SDS011;7777;52.254;9.618;2023-04-22T12:28:37;3.80;;;1.73;;
15354;SDS011;7777;52.254;9.618;2023-04-22T12:31:04;5.43;;;2.43;;
15354;SDS011;7777;52.254;9.618;2023-04-22T12:33:30;4.53;;;2.47;;
15354;SDS011;7777;52.254;9.618;2023-04-22T12:35:56;16.23;;;3.10;;
15354;SDS011;7777;52.254;9.618;2023-04-22T12:38:22;6.17;;;2.33;;
15354;SDS011;7777;52.254;9.618;2023-04-22T12:40:48;3.30;;;1.77;;
15354;SDS011;7777;52.254;9.618;2023-04-22T12:43:15;5.17;;;2.10;;
15354;SDS011;7777;52.254;9.618;2023-04-22T12:45:41;5.37;;;1.80;;
15354;SDS011;7777;52.254;9.618;2023-04-22T12:48:07;3.63;;;2.37;;
15354;SDS011;7777;52.254;9.618;2023-04-22T12:50:33;3.20;;;1.80;;
15354;SDS011;7777;52.254;9.618;2023-04-22T12:52:58;2.83;;;1.50;;
15354;SDS011;7777;52.254;9.618;2023-04-22T12:55:25;6.90;;;2.40;;
15354;SDS011;7777;52.254;9.618;2023-04-22T12:57:51;3.77;;;1.90;;
15354;SDS011;7777;52.254;9.618;2023-04-22T13:00:17;3.10;;;1.90;;
15354;SDS011;7777;52.254;9.618;2023-04-22T13:02:44;7.93;;;2.33;;
15354;SDS011;7777;52.254;9.618;2023-04-22T13:05:15;5.30;;;2.10;;
15354;SDS011;7777;52.254;9.618;2023-04-22T13:07:42;2.90;;;1.80;;
15354;SDS011;7777;52.254;9.618;2023-04-22T13:10:10;4.47;;;2.07;;
15354;SDS011;7777;52.254;9.618;2023-04-22T13:12:40;3.23;;;2.20;;
15354;SDS011;7777;52.254;9.618;2023-04-22T13:15:07;8.87;;;2.13;;
15354;SDS011;7777;52.254;9.618;2023-04-22T13:17:35;3.87;;;2.07;;
15354;SDS011;7777;52.254;9.618;2023-04-22T13:20:02;2.83;;;1.60;;
15354;SDS011;7777;52.254;9.618;2023-04-22T13:22:31;3.40;;;1.70;;
15354;SDS011;7777;52.254;9.618;2023-04-22T13:24:57;3.63;;;1.83;;
15354;SDS011;7777;52.254;9.618;2023-04-22T13:27:24;5.77;;;2.50;;
15354;SDS011;7777;52.254;9.618;2023-04-22T13:29:50;4.77;;;2.00;;
15354;SDS011;7777;52.254;9.618;2023-04-22T13:32:15;5.17;;;2.23;;
15354;SDS011;7777;52.254;9.618;2023-04-22T13:34:41;7.33;;;2.07;;
15354;SDS011;7777;52.254;9.618;2023-04-22T13:37:07;4.33;;;1.80;;
15354;SDS011;7777;52.254;9.618;2023-04-22T13:39:32;5.73;;;2.00;;
15354;SDS011;7777;52.254;9.618;2023-04-22T13:41:58;4.53;;;2.03;;
15354;SDS011;7777;52.254;9.618;2023-04-22T13:44:24;2.37;;;1.70;;
15354;SDS011;7777;52.254;9.618;2023-04-22T13:46:50;3.77;;;1.97;;
15354;SDS011;7777;52.254;9.618;2023-04-22T13:49:16;4.50;;;1.63;;
15354;SDS011;7777;52.254;9.618;2023-04-22T13:51:42;2.97;;;1.90;;
15354;SDS011;7777;52.254;9.618;2023-04-22T13:54:07;9.20;;;2.00;;
15354;SDS011;7777;52.254;9.618;2023-04-22T13:56:33;8.27;;;2.57;;
15354;SDS011;7777;52.254;9.618;2023-04-22T13:58:59;4.77;;;1.73;;
15354;SDS011;7777;52.254;9.618;2023-04-22T14:01:25;8.23;;;2.20;;
15354;SDS011;7777;52.254;9.618;2023-04-22T14:03:51;4.77;;;1.87;;
15354;SDS011;7777;52.254;9.618;2023-04-22T14:06:18;3.27;;;1.80;;
15354;SDS011;7777;52.254;9.618;2023-04-22T14:08:45;2.93;;;1.87;;
15354;SDS011;7777;52.254;9.618;2023-04-22T14:11:11;2.90;;;1.77;;
15354;SDS011;7777;52.254;9.618;2023-04-22T14:13:37;3.73;;;2.03;;
15354;SDS011;7777;52.254;9.618;2023-04-22T14:16:04;5.07;;;2.17;;
15354;SDS011;7777;52.254;9.618;2023-04-22T14:18:35;3.73;;;1.80;;
15354;SDS011;7777;52.254;9.618;2023-04-22T14:21:03;4.03;;;1.90;;
15354;SDS011;7777;52.254;9.618;2023-04-22T14:23:30;5.17;;;1.70;;
15354;SDS011;7777;52.254;9.618;2023-04-22T15:47:47;2.70;;;1.30;;
15354;SDS011;7777;52.254;9.618;2023-04-22T15:50:13;2.43;;;1.77;;
15354;SDS011;7777;52.254;9.618;2023-04-22T15:52:38;5.53;;;1.20;;
15354;SDS011;7777;52.254;9.618;2023-04-22T15:55:05;2.93;;;1.30;;
15354;SDS011;7777;52.254;9.618;2023-04-22T15:57:31;2.50;;;1.37;;
15354;SDS011;7777;52.254;9.618;2023-04-22T16:00:03;4.40;;;1.23;;
15354;SDS011;7777;52.254;9.618;2023-04-22T16:02:32;3.23;;;1.70;;
15354;SDS011;7777;52.254;9.618;2023-04-22T16:04:59;4.07;;;1.53;;
15354;SDS011;7777;52.254;9.618;2023-04-22T16:07:24;2.97;;;1.67;;
15354;SDS011;7777;52.254;9.618;2023-04-22T16:09:50;4.10;;;1.30;;
15354;SDS011;7777;52.254;9.618;2023-04-22T16:12:16;2.70;;;1.43;;
15354;SDS011;7777;52.254;9.618;2023-04-22T16:14:42;3.80;;;1.50;;
15354;SDS011;7777;52.254;9.618;2023-04-22T16:17:08;4.80;;;1.30;;
15354;SDS011;7777;52.254;9.618;2023-04-22T16:19:34;3.40;;;1.23;;
15354;SDS011;7777;52.254;9.618;2023-04-22T16:22:00;3.63;;;1.50;;
15354;SDS011;7777;52.254;9.618;2023-04-22T16:24:25;2.00;;;1.40;;
15354;SDS011;7777;52.254;9.618;2023-04-22T16:26:51;3.90;;;1.30;;
15354;SDS011;7777;52.254;9.618;2023-04-22T16:29:17;4.07;;;1.40;;
15354;SDS011;7777;52.254;9.618;2023-04-22T16:31:43;2.00;;;1.33;;
15354;SDS011;7777;52.254;9.618;2023-04-22T16:34:09;5.70;;;1.57;;